createdAt,value
2018-08-20T00:01:29.272Z,98174.34
2018-08-20T00:04:01.252Z,98170.86
2018-08-20T00:07:01.557Z,98172.48
2018-08-20T00:09:36.598Z,98175.95
2018-08-20T00:12:07.206Z,98179.23
2018-08-20T00:14:35.842Z,98181.14
2018-08-20T00:17:04.463Z,98175.45
2018-08-20T00:19:33.041Z,98177.96
2018-08-20T00:22:01.572Z,98176.12
2018-08-20T00:24:30.170Z,98172.83
2018-08-20T00:27:00.153Z,98172.22
2018-08-20T00:29:28.945Z,98172.60
2018-08-20T00:31:57.504Z,98172.37
2018-08-20T00:34:26.089Z,98173.80
2018-08-20T00:36:54.610Z,98173.75
2018-08-20T00:39:23.185Z,98178.72
2018-08-20T00:41:51.708Z,98172.73
2018-08-20T00:44:20.265Z,98171.37
2018-08-20T00:46:48.831Z,98171.94
2018-08-20T00:49:17.501Z,98176.42
2018-08-20T00:51:46.618Z,98178.02
2018-08-20T00:54:15.168Z,98173.88
2018-08-20T00:56:43.725Z,98173.48
2018-08-20T00:59:12.672Z,98176.64
2018-08-20T01:01:41.234Z,98166.09
2018-08-20T01:04:09.820Z,98163.91
2018-08-20T01:06:38.386Z,98166.33
2018-08-20T01:09:08.031Z,98172.63
2018-08-20T01:11:37.102Z,98177.28
2018-08-20T01:14:05.731Z,98164.52
2018-08-20T01:16:39.420Z,98170.97
2018-08-20T01:19:07.962Z,98167.73
2018-08-20T01:21:36.479Z,98170.98
2018-08-20T01:24:05.058Z,98170.75
2018-08-20T01:26:33.614Z,98171.56
2018-08-20T01:29:02.180Z,98173.22
2018-08-20T01:31:30.694Z,98168.33
2018-08-20T01:33:59.243Z,98169.92
2018-08-20T01:36:27.771Z,98176.22
2018-08-20T01:38:56.258Z,98177.53
2018-08-20T01:41:24.829Z,98172.97
2018-08-20T01:43:53.400Z,98170.80
2018-08-20T01:46:21.940Z,98172.59
2018-08-20T01:48:50.511Z,98167.44
2018-08-20T01:51:19.142Z,98167.73
2018-08-20T01:53:47.677Z,98169.57
2018-08-20T01:56:16.247Z,98164.63
2018-08-20T01:58:44.799Z,98172.75
2018-08-20T02:01:13.570Z,98179.52
2018-08-20T02:03:42.188Z,98179.87
2018-08-20T02:06:10.717Z,98180.16
2018-08-20T02:08:39.342Z,98182.93
2018-08-20T02:11:07.930Z,98184.04
2018-08-20T02:13:36.509Z,98187.67
2018-08-20T02:16:05.129Z,98183.08
2018-08-20T02:18:33.743Z,98181.24
2018-08-20T02:22:26.712Z,98174.95
2018-08-20T02:24:55.476Z,98179.69
2018-08-20T02:27:24.372Z,98181.91
2018-08-20T02:29:52.953Z,98176.83
2018-08-20T02:32:21.538Z,98172.84
2018-08-20T02:34:50.286Z,98173.91
2018-08-20T02:37:18.799Z,98172.66
2018-08-20T02:39:47.409Z,98176.00
2018-08-20T02:42:15.977Z,98181.44
2018-08-20T02:44:44.538Z,98182.31
2018-08-20T02:47:13.082Z,98181.19
2018-08-20T02:49:41.651Z,98179.05
2018-08-20T02:52:10.520Z,98175.50
2018-08-20T02:54:39.085Z,98180.06
2018-08-20T02:57:07.600Z,98175.47
2018-08-20T02:59:36.201Z,98174.88
2018-08-20T03:02:04.846Z,98172.13
2018-08-20T03:04:33.438Z,98168.05
2018-08-20T03:07:02.278Z,98175.59
2018-08-20T03:09:30.874Z,98172.02
2018-08-20T03:11:59.426Z,98171.00
2018-08-20T03:14:27.989Z,98168.58
2018-08-20T03:16:56.546Z,98171.20
2018-08-20T03:19:25.074Z,98174.48
2018-08-20T03:21:53.582Z,98189.94
2018-08-20T03:24:22.168Z,98182.77
2018-08-20T03:26:50.907Z,98178.70
2018-08-20T03:29:19.470Z,98183.83
2018-08-20T03:31:48.022Z,98183.05
2018-08-20T03:34:16.558Z,98180.88
2018-08-20T03:36:45.126Z,98174.66
2018-08-20T03:39:13.675Z,98176.00
2018-08-20T03:41:42.206Z,98180.56
2018-08-20T03:44:10.722Z,98185.72
2018-08-20T03:46:39.284Z,98183.83
2018-08-20T03:49:07.970Z,98187.98
2018-08-20T03:51:36.546Z,98193.43
2018-08-20T03:54:05.290Z,98184.81
2018-08-20T03:56:33.882Z,98191.32
2018-08-20T03:59:02.418Z,98197.77
2018-08-20T04:01:30.949Z,98191.83
2018-08-20T04:03:59.495Z,98195.84
2018-08-20T04:06:28.101Z,98197.48
2018-08-20T04:08:56.587Z,98197.50
2018-08-20T04:11:25.134Z,98200.44
2018-08-20T04:13:53.653Z,98197.73
2018-08-20T04:16:22.187Z,98206.12
2018-08-20T04:18:54.858Z,98208.85
2018-08-20T04:21:23.419Z,98209.69
2018-08-20T04:23:51.963Z,98210.19
2018-08-20T04:26:20.507Z,98212.13
2018-08-20T04:28:49.086Z,98215.38
2018-08-20T04:31:17.626Z,98211.86
2018-08-20T04:33:46.155Z,98208.05
2018-08-20T04:36:14.653Z,98211.55
2018-08-20T04:38:43.408Z,98220.75
2018-08-20T04:41:12.017Z,98219.63
2018-08-20T04:43:40.540Z,98225.27
2018-08-20T04:46:09.145Z,98222.84
2018-08-20T04:48:37.641Z,98225.86
2018-08-20T04:51:06.388Z,98230.74
2018-08-20T04:53:34.763Z,98232.62
2018-08-20T04:56:03.338Z,98235.58
2018-08-20T04:58:31.878Z,98237.47
2018-08-20T05:01:00.441Z,98235.34
2018-08-20T05:03:29.356Z,98233.98
2018-08-20T05:05:57.893Z,98239.09
2018-08-20T05:08:26.394Z,98240.96
2018-08-20T05:10:54.955Z,98236.94
2018-08-20T05:13:23.499Z,98233.69
2018-08-20T05:15:52.212Z,98237.42
2018-08-20T05:18:20.684Z,98240.36
2018-08-20T05:20:49.225Z,98240.02
2018-08-20T05:23:17.792Z,98236.41
2018-08-20T05:25:46.321Z,98241.56
2018-08-20T05:28:14.802Z,98230.92
2018-08-20T05:30:43.361Z,98230.47
2018-08-20T05:33:11.902Z,98232.02
2018-08-20T05:35:40.427Z,98234.93
2018-08-20T05:38:09.050Z,98228.55
2018-08-20T05:40:37.529Z,98236.22
2018-08-20T05:43:06.417Z,98237.67
2018-08-20T05:45:34.943Z,98229.95
2018-08-20T05:48:03.522Z,98246.47
2018-08-20T05:50:32.114Z,98249.49
2018-08-20T05:53:00.694Z,98253.02
2018-08-20T05:55:29.229Z,98253.77
2018-08-20T05:57:57.862Z,98262.73
2018-08-20T06:00:26.437Z,98258.83
2018-08-20T06:02:55.009Z,98259.84
2018-08-20T06:05:23.561Z,98251.66
2018-08-20T06:07:52.112Z,98257.16
2018-08-20T06:10:20.643Z,98261.17
2018-08-20T06:12:49.244Z,98259.70
2018-08-20T06:15:17.838Z,98261.86
2018-08-20T06:17:47.007Z,98270.87
2018-08-20T06:20:17.225Z,98270.45
2018-08-20T06:22:46.143Z,98268.81
2018-08-20T06:25:15.097Z,98274.50
2018-08-20T06:27:44.030Z,98278.52
2018-08-20T06:30:16.716Z,98272.81
2018-08-20T06:32:45.706Z,98279.58
2018-08-20T06:35:14.309Z,98282.54
2018-08-20T06:37:43.504Z,98286.31
2018-08-20T06:40:13.819Z,98285.61
2018-08-20T06:42:42.718Z,98292.36
2018-08-20T06:45:14.355Z,98299.34
2018-08-20T06:47:43.648Z,98299.01
2018-08-20T06:50:14.298Z,98296.75
2018-08-20T06:52:43.881Z,98297.73
2018-08-20T06:55:13.285Z,98297.28
2018-08-20T06:57:44.142Z,98293.24
2018-08-20T07:00:12.834Z,98294.63
2018-08-20T07:02:41.544Z,98298.48
2018-08-20T07:05:10.454Z,98297.67
2018-08-20T07:07:40.107Z,98289.98
2018-08-20T07:10:11.330Z,98296.28
2018-08-20T07:12:39.926Z,98297.08
2018-08-20T07:15:09.810Z,98286.43
2018-08-20T07:17:41.523Z,98286.77
2018-08-20T07:20:11.755Z,98289.64
2018-08-20T07:22:40.377Z,98290.76
2018-08-20T07:25:09.551Z,98287.73
2018-08-20T07:27:38.567Z,98290.67
2018-08-20T07:30:09.923Z,98297.38
2018-08-20T07:32:38.528Z,98290.18
2018-08-20T07:35:07.369Z,98291.86
2018-08-20T07:37:35.942Z,98292.64
2018-08-20T07:40:05.921Z,98289.42
2018-08-20T07:42:34.638Z,98298.41
2018-08-20T07:45:03.144Z,98299.44
2018-08-20T07:47:31.941Z,98295.49
2018-08-20T07:50:00.599Z,98297.69
2018-08-20T07:52:30.181Z,98302.00
2018-08-20T07:54:59.591Z,98290.00
2018-08-20T07:57:28.218Z,98289.27
2018-08-20T07:59:56.763Z,98295.57
2018-08-20T08:02:25.383Z,98296.27
2018-08-20T08:04:53.928Z,98300.38
2018-08-20T08:07:22.984Z,98309.77
2018-08-20T08:09:52.432Z,98308.14
2018-08-20T08:12:20.926Z,98311.86
2018-08-20T08:14:49.583Z,98303.17
2018-08-20T08:17:18.139Z,98306.56
2018-08-20T08:19:47.956Z,98308.98
2018-08-20T08:22:16.719Z,98296.45
2018-08-20T08:24:45.467Z,98306.34
2018-08-20T08:27:14.023Z,98304.15
2018-08-20T08:29:42.790Z,98297.36
2018-08-20T08:32:11.588Z,98300.48
2018-08-20T08:34:40.280Z,98289.20
2018-08-20T08:37:09.034Z,98296.90
2018-08-20T08:39:37.723Z,98299.42
2018-08-20T08:42:07.160Z,98297.47
2018-08-20T08:44:36.232Z,98301.19
2018-08-20T08:47:05.165Z,98294.77
2018-08-20T08:49:34.699Z,98304.22
2018-08-20T08:52:03.305Z,98304.41
2018-08-20T08:54:31.887Z,98294.17
2018-08-20T08:57:00.482Z,98291.84
2018-08-20T08:59:29.261Z,98293.55
2018-08-20T09:01:57.978Z,98288.80
2018-08-20T09:04:26.543Z,98287.41
2018-08-20T09:06:55.232Z,98290.48
2018-08-20T09:09:23.832Z,98279.00
2018-08-20T09:11:52.441Z,98280.34
2018-08-20T09:14:21.011Z,98286.14
2018-08-20T09:16:49.573Z,98281.46
2018-08-20T09:19:18.063Z,98281.91
2018-08-20T09:21:46.606Z,98282.93
2018-08-20T09:24:15.136Z,98282.50
2018-08-20T09:26:43.658Z,98281.22
2018-08-20T09:29:12.235Z,98283.27
2018-08-20T09:31:40.708Z,98285.17
2018-08-20T09:34:09.250Z,98280.77
2018-08-20T09:36:37.738Z,98270.27
2018-08-20T09:39:06.923Z,98274.31
2018-08-20T09:41:35.399Z,98256.13
2018-08-20T09:44:03.976Z,98260.95
2018-08-20T09:46:32.707Z,98257.95
2018-08-20T09:49:01.219Z,98251.28
2018-08-20T09:51:29.904Z,98256.81
2018-08-20T09:53:58.424Z,98259.33
2018-08-20T09:56:26.902Z,98261.48
2018-08-20T09:58:55.438Z,98256.11
2018-08-20T10:01:23.910Z,98250.81
2018-08-20T10:03:52.402Z,98254.05
2018-08-20T10:06:20.897Z,98254.84
2018-08-20T10:08:50.288Z,98256.00
2018-08-20T10:11:18.802Z,98252.91
2018-08-20T10:13:47.309Z,98249.77
2018-08-20T10:16:15.759Z,98252.11
2018-08-20T10:18:44.255Z,98251.08
2018-08-20T10:21:12.766Z,98252.67
2018-08-20T10:23:41.244Z,98239.05
2018-08-20T10:26:09.734Z,98239.78
2018-08-20T10:28:38.233Z,98236.80
2018-08-20T10:31:06.759Z,98238.09
2018-08-20T10:33:35.235Z,98237.12
2018-08-20T10:36:03.751Z,98222.73
2018-08-20T10:38:32.254Z,98232.94
2018-08-20T10:41:00.778Z,98233.33
2018-08-20T10:43:29.233Z,98225.55
2018-08-20T10:46:03.095Z,98225.42
2018-08-20T10:48:31.550Z,98231.27
2018-08-20T10:51:00.051Z,98215.98
2018-08-20T10:53:28.538Z,98223.81
2018-08-20T10:55:57.054Z,98225.55
2018-08-20T10:58:25.545Z,98222.09
2018-08-20T11:00:54.071Z,98213.59
2018-08-20T11:03:22.583Z,98212.33
2018-08-20T11:08:44.363Z,98211.80
2018-08-20T11:11:12.901Z,98212.92
2018-08-20T11:13:41.407Z,98208.78
2018-08-20T11:16:10.232Z,98199.63
2018-08-20T11:18:38.739Z,98196.72
2018-08-20T11:21:07.367Z,98199.84
2018-08-20T11:23:35.898Z,98198.72
2018-08-20T11:26:04.495Z,98199.84
2018-08-20T11:28:33.026Z,98196.33
2018-08-20T11:31:01.648Z,98187.37
2018-08-20T11:33:30.395Z,98188.59
2018-08-20T11:35:59.014Z,98190.65
2018-08-20T11:38:27.775Z,98193.86
2018-08-20T11:40:57.224Z,98183.92
2018-08-20T11:43:25.782Z,98188.80
2018-08-20T11:45:54.357Z,98178.94
2018-08-20T11:48:22.857Z,98178.77
2018-08-20T11:50:51.402Z,98179.06
2018-08-20T11:53:20.004Z,98181.45
2018-08-20T11:55:49.201Z,98175.73
2018-08-20T11:58:17.722Z,98172.88
2018-08-20T12:00:46.226Z,98170.63
2018-08-20T12:03:14.747Z,98168.78
2018-08-20T12:05:43.275Z,98176.08
2018-08-20T12:08:12.118Z,98171.94
2018-08-20T12:10:40.796Z,98162.89
2018-08-20T12:13:09.275Z,98165.34
2018-08-20T12:15:37.798Z,98162.81
2018-08-20T12:18:06.358Z,98159.52
2018-08-20T12:20:34.869Z,98155.59
2018-08-20T12:23:03.384Z,98146.70
2018-08-20T12:25:31.908Z,98155.95
2018-08-20T12:28:00.406Z,98149.03
2018-08-20T12:30:28.909Z,98141.17
2018-08-20T12:32:57.430Z,98143.80
2018-08-20T12:35:25.989Z,98145.66
2018-08-20T12:37:54.532Z,98138.88
2018-08-20T12:40:23.160Z,98138.78
2018-08-20T12:42:51.633Z,98134.69
2018-08-20T12:45:20.148Z,98138.64
2018-08-20T12:47:48.678Z,98129.52
2018-08-20T12:50:17.169Z,98130.73
2018-08-20T12:52:45.747Z,98129.41
2018-08-20T12:55:14.220Z,98122.47
2018-08-20T12:57:42.757Z,98124.34
2018-08-20T13:00:11.246Z,98118.36
2018-08-20T13:02:39.810Z,98119.40
2018-08-20T13:05:08.333Z,98114.73
2018-08-20T13:07:36.879Z,98114.52
2018-08-20T13:10:05.944Z,98108.16
2018-08-20T13:12:34.489Z,98114.11
2018-08-20T13:15:03.004Z,98109.67
2018-08-20T13:17:31.895Z,98111.58
2018-08-20T13:20:00.447Z,98114.69
2018-08-20T13:22:28.958Z,98104.78
2018-08-20T13:24:57.422Z,98101.09
2018-08-20T13:27:26.029Z,98093.53
2018-08-20T13:29:54.545Z,98094.44
2018-08-20T13:32:23.103Z,98094.89
2018-08-20T13:34:51.620Z,98089.47
2018-08-20T13:37:20.292Z,98096.74
2018-08-20T13:39:48.745Z,98095.09
2018-08-20T13:42:17.345Z,98082.00
2018-08-20T13:44:45.877Z,98075.70
2018-08-20T13:47:14.693Z,98070.55
2018-08-20T13:49:43.792Z,98069.83
2018-08-20T13:52:12.337Z,98067.52
2018-08-20T13:54:40.889Z,98073.34
2018-08-20T13:57:09.424Z,98062.66
2018-08-20T13:59:37.983Z,98050.70
2018-08-20T14:02:06.689Z,98053.05
2018-08-20T14:04:35.253Z,98058.14
2018-08-20T14:07:04.178Z,98050.98
2018-08-20T14:09:33.386Z,98049.86
2018-08-20T14:12:02.357Z,98046.66
2018-08-20T14:14:30.932Z,98051.66
2018-08-20T14:16:59.894Z,98034.95
2018-08-20T14:19:29.407Z,98037.95
2018-08-20T14:22:00.324Z,98033.49
2018-08-20T14:24:28.991Z,98030.06
2018-08-20T14:26:59.767Z,98030.80
2018-08-20T14:29:28.295Z,98024.65
2018-08-20T14:31:56.922Z,98012.44
2018-08-20T14:34:25.453Z,98021.13
2018-08-20T14:36:54.152Z,98028.37
2018-08-20T14:39:22.807Z,98027.28
2018-08-20T14:41:51.381Z,98020.20
2018-08-20T14:44:19.934Z,98025.05
2018-08-20T14:46:48.503Z,98027.72
2018-08-20T14:49:17.078Z,98028.47
2018-08-20T14:51:45.617Z,98023.02
2018-08-20T14:54:14.231Z,98021.38
2018-08-20T14:56:42.814Z,98027.25
2018-08-20T14:59:11.354Z,98018.70
2018-08-20T15:01:39.890Z,98021.38
2018-08-20T15:04:08.573Z,98020.44
2018-08-20T15:06:51.158Z,98012.50
2018-08-20T15:09:19.871Z,98015.02
2018-08-20T15:13:17.425Z,98006.95
2018-08-20T15:15:47.714Z,98000.38
2018-08-20T15:18:16.140Z,98005.67
2018-08-20T15:20:47.509Z,98003.87
2018-08-20T15:23:18.342Z,98000.91
2018-08-20T15:25:50.838Z,97999.08
2018-08-20T15:28:19.419Z,97998.75
2018-08-20T15:30:47.962Z,97998.73
2018-08-20T15:33:16.486Z,97996.51
2018-08-20T15:35:44.990Z,97993.59
2018-08-20T15:38:13.519Z,97987.70
2018-08-20T15:40:42.017Z,97993.64
2018-08-20T15:43:10.582Z,97989.94
2018-08-20T15:45:39.561Z,97990.91
2018-08-20T15:48:08.230Z,97994.01
2018-08-20T15:50:36.726Z,97994.65
2018-08-20T15:53:05.323Z,97993.08
2018-08-20T15:56:58.164Z,97990.19
2018-08-20T15:59:26.677Z,97987.32
2018-08-20T16:01:55.166Z,97984.08
2018-08-20T16:04:23.698Z,97984.01
2018-08-20T16:06:52.184Z,97984.00
2018-08-20T16:09:20.712Z,97972.81
2018-08-20T16:11:49.209Z,97974.00
2018-08-20T16:14:17.745Z,97979.13
2018-08-20T16:16:46.226Z,97973.66
2018-08-20T16:19:14.751Z,97971.33
2018-08-20T16:21:43.269Z,97971.26
2018-08-20T16:24:11.803Z,97969.54
2018-08-20T16:26:40.379Z,97967.83
2018-08-20T16:29:08.903Z,97966.33
2018-08-20T16:31:37.462Z,97968.46
2018-08-20T16:34:06.073Z,97962.50
2018-08-20T16:36:34.669Z,97966.73
2018-08-20T16:39:03.450Z,97963.38
2018-08-20T16:41:31.931Z,97967.89
2018-08-20T16:44:00.515Z,97970.28
2018-08-20T16:46:29.055Z,97967.13
2018-08-20T16:48:57.638Z,97963.95
2018-08-20T16:51:26.170Z,97960.00
2018-08-20T16:53:54.705Z,97961.28
2018-08-20T16:56:23.242Z,97961.70
2018-08-20T16:58:51.790Z,97961.59
2018-08-20T17:01:20.448Z,97954.19
2018-08-20T17:03:48.989Z,97952.54
2018-08-20T17:06:17.500Z,97958.16
2018-08-20T17:08:46.126Z,97960.00
2018-08-20T17:11:15.020Z,97957.52
2018-08-20T17:13:43.562Z,97961.86
2018-08-20T17:16:14.338Z,97955.63
2018-08-20T17:18:43.026Z,97959.28
2018-08-20T17:21:11.599Z,97962.89
2018-08-20T17:23:40.103Z,97959.10
2018-08-20T17:26:08.855Z,97960.79
2018-08-20T17:28:37.373Z,97958.41
2018-08-20T17:31:08.248Z,97954.62
2018-08-20T17:33:36.848Z,97959.40
2018-08-20T17:36:07.744Z,97959.14
2018-08-20T17:38:36.246Z,97961.10
2018-08-20T17:41:05.030Z,97964.93
2018-08-20T17:43:33.535Z,97960.53
2018-08-20T17:46:02.079Z,97962.32
2018-08-20T17:48:31.656Z,97967.11
2018-08-20T17:51:00.594Z,97972.66
2018-08-20T17:53:40.600Z,97971.38
2018-08-20T17:56:09.145Z,97975.46
2018-08-20T17:58:37.640Z,97976.41
2018-08-20T18:01:06.274Z,97982.56
2018-08-20T18:03:35.975Z,97981.61
2018-08-20T18:06:06.751Z,97985.69
2018-08-20T18:08:35.593Z,97988.58
2018-08-20T18:11:04.711Z,97995.36
2018-08-20T18:13:47.521Z,97997.86
2018-08-20T18:16:17.146Z,98002.64
2018-08-20T18:18:47.866Z,97996.37
2018-08-20T18:21:16.461Z,97999.48
2018-08-20T18:23:45.017Z,98005.30
2018-08-20T18:26:13.579Z,98007.19
2018-08-20T18:28:47.310Z,98011.30
2018-08-20T18:31:23.040Z,98013.56
2018-08-20T18:33:51.594Z,98019.67
2018-08-20T18:36:26.600Z,98022.85
2018-08-20T18:38:56.606Z,98036.65
2018-08-20T18:42:05.669Z,98033.27
2018-08-20T18:44:34.178Z,98034.67
2018-08-20T18:47:02.844Z,98040.48
2018-08-20T18:49:31.426Z,98039.41
2018-08-20T18:52:06.609Z,98047.36
2018-08-20T18:54:39.349Z,98046.66
2018-08-20T18:57:07.924Z,98045.97
2018-08-20T18:59:37.560Z,98054.41
2018-08-20T19:02:07.251Z,98049.83
2018-08-20T19:04:41.732Z,98060.93
2018-08-20T19:07:11.794Z,98062.66
2018-08-20T19:09:41.227Z,98066.23
2018-08-20T19:12:10.321Z,98069.67
2018-08-20T19:14:38.822Z,98070.23
2018-08-20T19:17:13.652Z,98071.16
2018-08-20T19:19:49.309Z,98070.50
2018-08-20T19:22:23.090Z,98066.80
2018-08-20T19:24:51.613Z,98069.88
2018-08-20T19:27:20.214Z,98072.03
2018-08-20T19:29:48.714Z,98075.73
2018-08-20T19:32:17.274Z,98076.95
2018-08-20T19:34:45.850Z,98082.94
2018-08-20T19:37:14.339Z,98084.34
2018-08-20T19:39:42.846Z,98090.85
2018-08-20T19:42:14.987Z,98088.85
2018-08-20T19:44:43.490Z,98087.84
2018-08-20T19:47:12.022Z,98093.31
2018-08-20T19:49:40.914Z,98094.55
2018-08-20T19:52:09.538Z,98097.13
2018-08-20T19:54:38.074Z,98096.39
2018-08-20T19:57:06.593Z,98106.13
2018-08-20T19:59:38.705Z,98099.14
2018-08-20T20:02:11.503Z,98099.31
2018-08-20T20:04:40.029Z,98101.56
2018-08-20T20:07:08.569Z,98102.52
2018-08-20T20:09:38.422Z,98103.78
2018-08-20T20:12:07.050Z,98099.52
2018-08-20T20:14:40.975Z,98103.95
2018-08-20T20:17:10.064Z,98106.66
2018-08-20T20:19:38.950Z,98109.55
2018-08-20T20:22:12.610Z,98112.98
2018-08-20T20:24:41.426Z,98110.41
2018-08-20T20:27:10.060Z,98113.00
2018-08-20T20:29:38.936Z,98120.86
2018-08-20T20:32:07.586Z,98120.63
2018-08-20T20:34:36.337Z,98127.86
2018-08-20T20:37:05.062Z,98135.64
2018-08-20T20:39:34.615Z,98136.75
2018-08-20T20:42:03.190Z,98137.34
2018-08-20T20:44:31.806Z,98141.98
2018-08-20T20:47:00.470Z,98141.58
2018-08-20T20:49:29.017Z,98146.25
2018-08-20T20:51:57.558Z,98150.41
2018-08-20T20:54:26.183Z,98152.27
2018-08-20T20:56:55.110Z,98153.52
2018-08-20T20:59:23.734Z,98155.87
2018-08-20T21:01:52.333Z,98155.59
2018-08-20T21:04:20.957Z,98145.98
2018-08-20T21:06:49.776Z,98163.41
2018-08-20T21:09:18.354Z,98159.15
2018-08-20T21:11:46.986Z,98167.66
2018-08-20T21:14:15.648Z,98165.31
2018-08-20T21:16:44.198Z,98174.05
2018-08-20T21:19:12.789Z,98177.95
2018-08-20T21:21:41.590Z,98171.73
2018-08-20T21:24:10.553Z,98169.76
2018-08-20T21:26:39.133Z,98176.92
2018-08-20T21:29:07.774Z,98181.16
2018-08-20T21:31:42.502Z,98189.89
2018-08-20T21:34:11.183Z,98181.22
2018-08-20T21:36:39.869Z,98186.44
2018-08-20T21:39:09.989Z,98182.05
2018-08-20T21:41:39.383Z,98189.68
2018-08-20T21:44:08.070Z,98188.96
2018-08-20T21:46:36.742Z,98197.14
2018-08-20T21:49:05.705Z,98197.06
2018-08-20T21:51:41.557Z,98200.94
2018-08-20T21:54:11.455Z,98197.91
2018-08-20T21:56:51.174Z,98202.66
2018-08-20T21:59:19.808Z,98206.08
2018-08-20T22:01:48.393Z,98205.61
2018-08-20T22:04:19.722Z,98210.75
2018-08-20T22:06:49.507Z,98212.08
2018-08-20T22:09:18.174Z,98213.82
2018-08-20T22:11:47.089Z,98216.39
2018-08-20T22:14:15.706Z,98212.17
2018-08-20T22:16:44.245Z,98215.00
2018-08-20T22:19:13.205Z,98211.13
2018-08-20T22:21:41.781Z,98214.47
2018-08-20T22:24:10.576Z,98215.22
2018-08-20T22:26:45.803Z,98214.30
2018-08-20T22:29:14.445Z,98213.91
2018-08-20T22:31:48.649Z,98209.72
2018-08-20T22:34:17.247Z,98216.13
2018-08-20T22:36:46.766Z,98214.67
2018-08-20T22:39:15.341Z,98208.01
2018-08-20T22:41:44.119Z,98207.80
2018-08-20T22:44:12.682Z,98213.04
2018-08-20T22:46:41.258Z,98209.12
2018-08-20T22:49:09.847Z,98213.71
2018-08-20T22:51:38.370Z,98216.11
2018-08-20T22:54:06.967Z,98221.02
2018-08-20T22:56:36.230Z,98222.65
2018-08-20T22:59:07.393Z,98223.74
2018-08-20T23:01:40.822Z,98227.24
2018-08-20T23:04:09.602Z,98219.27
2018-08-20T23:06:38.291Z,98219.86
2018-08-20T23:09:25.566Z,98223.23
2018-08-20T23:11:59.668Z,98217.91
2018-08-20T23:14:28.243Z,98216.03
2018-08-20T23:16:56.910Z,98216.11
2018-08-20T23:19:25.866Z,98216.22
2018-08-20T23:21:55.013Z,98223.37
2018-08-20T23:24:24.101Z,98222.77
2018-08-20T23:26:52.905Z,98220.05
2018-08-20T23:29:21.490Z,98220.39
2018-08-20T23:31:50.118Z,98220.15
2018-08-20T23:34:18.738Z,98219.91
2018-08-20T23:36:47.329Z,98223.01
2018-08-20T23:39:17.390Z,98224.16
2018-08-20T23:41:46.791Z,98220.25
2018-08-20T23:44:17.073Z,98225.28
2018-08-20T23:46:47.470Z,98225.39
2018-08-20T23:49:16.058Z,98235.22
2018-08-20T23:51:44.719Z,98230.32
2018-08-20T23:54:13.713Z,98232.02
2018-08-20T23:56:42.344Z,98236.72
2018-08-20T23:59:10.913Z,98240.33
